ANACAPA ISLAND RAWS NEAR OXNARD 15SW HADS current weather conditions

sailwx.info

Wind from 310 at 7 knots gusting 13

Air temperature 17.8° C
Dewpoint 14.5° C

Last reported at 2017-Aug-17 08:23 UTC.
Time now 2017-Aug-17 09:56 UTC

Location: N 34°01' W 119°22'.
View on Google Maps.

See reports from other nearby stations

  
Tides and Currents Weather Stations Pressure Air Temp Water Temp Dewpoint Dewpoint Depression Visibility Wind Speed Wind Dir Waves Ship Positions
date/time (UTC)wind fromknots sea level pressurealtimeterstation pressurevisibilityair tempwater tempwave heightnotes
2017-Aug-17 08:23 310 7 gusting 13 17.8
2017-Aug-17 07:23 308 8 gusting 14 17.8
2017-Aug-17 06:23 310 9 gusting 16 17.8
2017-Aug-17 05:23 309 9 gusting 15 17.2
2017-Aug-17 04:23 307 10 gusting 16 17.8
2017-Aug-17 03:23 305 10 gusting 17 17.2
2017-Aug-17 02:23 309 10 gusting 16 17.8
2017-Aug-17 01:23 308 9 gusting 14 18.9
2017-Aug-17 00:23 307 8 gusting 13 20.0
2017-Aug-16 23:23 308 9 gusting 14 20.6
2017-Aug-16 22:23 304 6 gusting 9 21.7
2017-Aug-16 21:23 303 5 gusting 9 21.7
2017-Aug-16 20:23 315 4 gusting 7 22.2
2017-Aug-16 19:23 331 4 gusting 7 21.1
2017-Aug-16 18:23 333 3 gusting 6 21.1
2017-Aug-16 17:23 333 4 gusting 6 19.4
2017-Aug-16 16:23 333 4 gusting 7 18.3
2017-Aug-16 15:23 340 5 gusting 8 17.8
2017-Aug-16 14:23 344 5 gusting 8 17.2
2017-Aug-16 13:23 352 5 gusting 8 16.7
2017-Aug-16 12:23 004 4 gusting 7 16.7
2017-Aug-16 11:23 352 4 gusting 6 16.7
2017-Aug-16 10:23 345 4 gusting 6 17.2
2017-Aug-16 09:23 323 0 gusting 7 17.2
2017-Aug-16 08:23 306 5 gusting 11 17.2
2017-Aug-16 07:23 307 8 gusting 13 17.2
2017-Aug-16 06:23 300 6 gusting 12 17.2
2017-Aug-16 05:23 302 7 gusting 16 17.2
2017-Aug-16 04:23 306 9 gusting 17 17.2
2017-Aug-16 03:23 307 10 gusting 15 17.2
2017-Aug-16 02:23 305 8 gusting 14 17.8
2017-Aug-16 01:23 303 9 gusting 14 18.9
2017-Aug-16 00:23 305 8 gusting 14 20.0
2017-Aug-15 23:23 307 8 gusting 14 20.0
2017-Aug-15 22:23 312 6 gusting 12 21.1
2017-Aug-15 21:23 305 7 gusting 11 21.1
2017-Aug-15 20:23 303 6 gusting 11 20.6
2017-Aug-15 19:23 315 6 gusting 11 21.1
2017-Aug-15 18:23 306 6 gusting 9 20.0
2017-Aug-15 17:23 343 4 gusting 6 19.4
2017-Aug-15 16:23 357 2 gusting 6 18.3
2017-Aug-15 15:23 006 2 gusting 7 17.8
2017-Aug-15 14:23 337 5 gusting 11 17.2
2017-Aug-15 13:23 309 6 gusting 11 16.7
2017-Aug-15 12:23 327 6 gusting 12 16.7
2017-Aug-15 11:23 027 6 gusting 12 17.2
2017-Aug-15 10:23 086 6 gusting 11 17.2
2017-Aug-15 09:23 045 2 gusting 7 17.8